createdAt,value
2019-03-21T08:44:22.472Z,14.35
2019-03-21T08:45:22.459Z,14.65
2019-03-21T08:46:22.458Z,14.98
2019-03-21T08:47:22.428Z,15.39
2019-03-21T08:48:22.417Z,15.68
2019-03-21T08:49:22.408Z,15.97
2019-03-21T08:50:22.395Z,16.12
2019-03-21T08:51:22.385Z,16.42
2019-03-21T08:52:22.383Z,16.81
2019-03-21T08:53:22.361Z,17.10
2019-03-21T08:54:22.352Z,17.46
2019-03-21T08:55:22.346Z,17.76
2019-03-21T08:56:22.327Z,17.94
2019-03-21T08:57:22.328Z,17.87
2019-03-21T08:58:22.308Z,17.92
2019-03-21T08:59:22.295Z,17.94
2019-03-21T09:00:33.586Z,17.82
2019-03-21T09:01:23.272Z,17.69
2019-03-21T09:02:22.270Z,17.67
2019-03-21T09:03:22.252Z,17.62
2019-03-21T09:04:22.241Z,17.71
2019-03-21T09:05:22.229Z,17.87
2019-03-21T09:06:22.219Z,18.03
2019-03-21T09:07:22.216Z,18.27
2019-03-21T09:08:22.196Z,18.44
2019-03-21T09:09:22.183Z,18.65
2019-03-21T09:10:22.175Z,18.55
2019-03-21T09:11:22.164Z,18.61
2019-03-21T09:12:22.164Z,18.62
2019-03-21T09:13:22.148Z,18.90
2019-03-21T09:14:22.130Z,18.91
2019-03-21T09:15:22.117Z,19.29
2019-03-21T09:16:22.105Z,19.66
2019-03-21T09:17:22.104Z,20.08
2019-03-21T09:18:22.083Z,20.53
2019-03-21T09:19:22.072Z,20.69
2019-03-21T09:20:22.062Z,21.13
2019-03-21T09:21:22.050Z,21.50
2019-03-21T09:22:22.067Z,21.92
2019-03-21T09:23:22.028Z,22.02
2019-03-21T09:24:22.018Z,22.13
2019-03-21T09:25:22.009Z,22.39
2019-03-21T09:26:21.998Z,22.44
2019-03-21T09:27:21.995Z,22.69
2019-03-21T09:28:21.976Z,23.01
2019-03-21T09:29:21.962Z,23.15
2019-03-21T09:30:21.951Z,23.29
2019-03-21T09:31:21.940Z,23.60
2019-03-21T09:32:22.030Z,23.89
2019-03-21T09:33:21.918Z,23.89
2019-03-21T09:34:21.909Z,23.90
2019-03-21T09:35:21.897Z,23.94
2019-03-21T09:36:21.885Z,24.17
2019-03-21T09:37:21.883Z,24.20
2019-03-21T09:38:21.869Z,24.17
2019-03-21T09:39:21.854Z,24.41
2019-03-21T09:40:21.842Z,24.53
2019-03-21T09:41:21.833Z,24.14
2019-03-21T09:42:21.829Z,23.87
2019-03-21T09:43:21.811Z,24.10
2019-03-21T09:44:21.796Z,24.17
2019-03-21T09:45:21.784Z,24.32
2019-03-21T09:46:21.777Z,24.32
2019-03-21T09:47:21.777Z,24.38
2019-03-21T09:48:21.751Z,24.98
2019-03-21T09:49:21.743Z,25.39
2019-03-21T09:50:21.731Z,25.93
2019-03-21T09:51:30.638Z,26.73
2019-03-21T09:52:22.722Z,27.04
2019-03-21T09:53:21.698Z,27.33
2019-03-21T09:54:21.689Z,27.43
2019-03-21T09:55:21.676Z,27.51
2019-03-21T09:56:23.934Z,27.64
2019-03-21T09:57:21.656Z,27.82
2019-03-21T09:58:21.653Z,28.10
2019-03-21T09:59:21.632Z,28.28
2019-03-21T10:00:21.621Z,28.33
2019-03-21T10:01:21.611Z,28.28
2019-03-21T10:02:21.600Z,28.07
2019-03-21T10:03:21.599Z,27.91
2019-03-21T10:04:21.592Z,28.01
2019-03-21T10:05:21.568Z,28.10
2019-03-21T10:06:21.557Z,28.04
2019-03-21T10:07:21.547Z,27.88
2019-03-21T10:08:21.547Z,27.38
2019-03-21T10:09:21.525Z,27.11
2019-03-21T10:10:21.517Z,27.04
2019-03-21T10:11:21.506Z,26.84
2019-03-21T10:12:21.493Z,26.83
2019-03-21T10:13:21.493Z,27.11
2019-03-21T10:14:21.471Z,27.51
2019-03-21T10:15:21.462Z,27.85
2019-03-21T10:16:21.451Z,28.16
2019-03-21T10:17:21.441Z,28.50
2019-03-21T10:18:21.440Z,28.77
2019-03-21T10:19:21.422Z,29.07
2019-03-21T10:20:21.410Z,29.16
2019-03-21T10:21:21.399Z,28.29
2019-03-21T10:22:21.390Z,28.43
2019-03-21T10:23:21.387Z,28.44
2019-03-21T10:24:21.366Z,28.25
2019-03-21T10:25:21.356Z,28.09
2019-03-21T10:26:21.345Z,27.73
2019-03-21T10:27:21.336Z,27.59
2019-03-21T10:28:21.335Z,27.47
2019-03-21T10:29:21.340Z,27.09
2019-03-21T10:30:21.305Z,26.76
2019-03-21T10:31:21.294Z,26.49
2019-03-21T10:32:21.283Z,26.31
2019-03-21T10:33:21.281Z,26.04
2019-03-21T10:34:21.270Z,25.59
2019-03-21T10:35:21.263Z,24.97
2019-03-21T10:36:21.240Z,24.41
2019-03-21T10:37:21.231Z,24.01
2019-03-21T10:38:21.238Z,23.08
2019-03-21T10:39:21.213Z,22.96
2019-03-21T10:40:21.199Z,22.97
2019-03-21T10:41:21.191Z,23.08
2019-03-21T10:42:21.181Z,23.15
2019-03-21T10:43:21.178Z,23.24
2019-03-21T10:44:21.158Z,23.32
2019-03-21T10:45:21.146Z,23.34
2019-03-21T10:46:21.141Z,23.43
2019-03-21T10:47:21.128Z,23.38
2019-03-21T10:48:23.486Z,23.57
2019-03-21T10:49:21.105Z,23.55
2019-03-21T10:50:21.098Z,23.67
2019-03-21T10:51:21.083Z,23.68
2019-03-21T10:52:21.071Z,23.65
2019-03-21T10:53:21.073Z,23.75
2019-03-21T10:54:23.532Z,23.86
2019-03-21T10:55:21.045Z,23.75
2019-03-21T10:56:21.035Z,23.70
2019-03-21T10:57:21.021Z,23.75
2019-03-21T10:58:21.010Z,23.77
2019-03-21T10:59:21.007Z,23.71
2019-03-21T11:00:20.990Z,23.71
2019-03-21T11:01:20.981Z,23.80
2019-03-21T11:02:20.965Z,23.77
2019-03-21T11:03:20.955Z,23.72
2019-03-21T11:04:20.953Z,23.32
2019-03-21T11:05:23.069Z,23.26
2019-03-21T11:06:20.924Z,23.22
2019-03-21T11:07:20.913Z,23.32
2019-03-21T11:08:20.903Z,23.35
2019-03-21T11:09:20.903Z,23.45
2019-03-21T11:10:20.879Z,23.70
2019-03-21T11:11:20.868Z,23.77
2019-03-21T11:12:20.858Z,23.70
2019-03-21T11:13:20.849Z,23.46
2019-03-21T11:14:20.849Z,23.43
2019-03-21T11:15:20.830Z,23.17
2019-03-21T11:16:20.815Z,23.08
2019-03-21T11:17:20.805Z,23.26
2019-03-21T11:18:20.837Z,23.17
2019-03-21T11:19:20.790Z,23.20
2019-03-21T11:20:20.772Z,23.20
2019-03-21T11:21:20.759Z,23.11
2019-03-21T11:22:20.749Z,22.93
2019-03-21T11:23:20.740Z,22.93
2019-03-21T11:24:20.736Z,22.87
2019-03-21T11:25:20.717Z,22.77
2019-03-21T11:26:20.706Z,22.83
2019-03-21T11:27:20.696Z,22.60
2019-03-21T11:28:20.685Z,22.52
2019-03-21T11:29:20.683Z,22.35
2019-03-21T11:30:20.664Z,22.37
2019-03-21T11:31:20.652Z,22.50
2019-03-21T11:32:20.642Z,22.67
2019-03-21T11:33:20.630Z,22.89
2019-03-21T11:34:20.632Z,23.11
2019-03-21T11:35:20.608Z,23.26
2019-03-21T11:36:20.601Z,23.53
2019-03-21T11:37:20.587Z,23.65
2019-03-21T11:38:20.577Z,23.40
2019-03-21T11:39:20.576Z,23.43
2019-03-21T11:40:20.556Z,23.57
2019-03-21T11:41:20.544Z,23.60
2019-03-21T11:42:20.535Z,23.82
2019-03-21T11:43:20.520Z,23.82
2019-03-21T11:44:20.522Z,23.94
2019-03-21T11:45:20.505Z,23.72
2019-03-21T11:46:20.504Z,23.22
2019-03-21T11:47:20.486Z,23.09
2019-03-21T11:48:20.481Z,23.12
2019-03-21T11:49:20.475Z,23.26
2019-03-21T11:50:20.447Z,23.53
2019-03-21T11:51:20.436Z,23.68
2019-03-21T11:52:20.428Z,23.83
2019-03-21T11:53:20.427Z,24.00
2019-03-21T11:54:20.405Z,24.01
2019-03-21T11:55:20.426Z,23.85
2019-03-21T11:56:20.416Z,23.77
2019-03-21T11:57:20.372Z,23.80
2019-03-21T11:58:20.364Z,24.16
2019-03-21T11:59:20.352Z,24.50
2019-03-21T12:00:20.349Z,25.00
2019-03-21T12:01:20.330Z,25.31
2019-03-21T12:02:27.017Z,25.34
2019-03-21T12:03:21.306Z,25.10
2019-03-21T12:04:20.304Z,25.37
2019-03-21T12:05:20.299Z,25.46
2019-03-21T12:06:20.278Z,25.82
2019-03-21T12:07:20.265Z,25.99
2019-03-21T12:08:20.258Z,25.99
2019-03-21T12:09:20.246Z,25.65
2019-03-21T12:10:20.290Z,25.74
2019-03-21T12:11:21.421Z,25.82
2019-03-21T12:12:20.220Z,26.09
2019-03-21T12:13:20.203Z,26.57
2019-03-21T12:14:20.209Z,26.99
2019-03-21T12:15:20.194Z,27.39
2019-03-21T12:16:20.172Z,27.41
2019-03-21T12:17:20.167Z,27.36
2019-03-21T12:18:20.157Z,27.32
2019-03-21T12:19:20.146Z,27.11
2019-03-21T12:20:20.142Z,27.41
2019-03-21T12:21:20.122Z,27.31
2019-03-21T12:22:29.572Z,27.36
2019-03-21T12:23:21.100Z,27.86
2019-03-21T12:24:20.090Z,28.19
2019-03-21T12:25:20.101Z,28.53
2019-03-21T12:26:20.076Z,28.82
2019-03-21T12:27:20.062Z,29.13
2019-03-21T12:28:20.048Z,29.33
2019-03-21T12:29:20.044Z,29.40
2019-03-21T12:30:20.043Z,29.72
2019-03-21T12:31:20.019Z,30.11
2019-03-21T12:32:20.014Z,30.33
2019-03-21T12:33:20.004Z,30.26
2019-03-21T12:34:19.988Z,30.12
2019-03-21T12:35:19.977Z,30.40
2019-03-21T12:36:19.978Z,30.65
2019-03-21T12:37:19.957Z,30.90
2019-03-21T12:38:19.954Z,31.02
2019-03-21T12:39:19.940Z,31.08
2019-03-21T12:40:19.929Z,31.12
2019-03-21T12:41:19.926Z,31.33
2019-03-21T12:42:19.906Z,31.50
2019-03-21T12:43:19.897Z,31.54
2019-03-21T12:44:19.893Z,31.26
2019-03-21T12:45:19.878Z,30.78
2019-03-21T12:46:19.876Z,30.78
2019-03-21T12:47:30.631Z,30.49
2019-03-21T12:48:20.847Z,30.57
2019-03-21T12:49:19.834Z,30.65
2019-03-21T12:50:19.829Z,30.62
2019-03-21T12:51:19.824Z,30.53
2019-03-21T12:52:19.805Z,30.52
2019-03-21T12:53:19.796Z,30.49
2019-03-21T12:54:19.787Z,30.56
2019-03-21T12:55:19.777Z,30.52
2019-03-21T12:56:19.941Z,30.23
2019-03-21T12:57:19.757Z,30.07
2019-03-21T12:58:19.746Z,29.90
2019-03-21T12:59:19.736Z,29.70
2019-03-21T13:00:19.726Z,29.57
2019-03-21T13:01:19.723Z,29.22
2019-03-21T13:02:31.827Z,28.91
2019-03-21T13:03:20.698Z,28.85
2019-03-21T13:04:19.684Z,28.75
2019-03-21T13:05:19.677Z,28.68
2019-03-21T13:06:19.674Z,28.48
2019-03-21T13:07:20.093Z,28.07
2019-03-21T13:08:19.644Z,27.92
2019-03-21T13:09:19.632Z,27.80
2019-03-21T13:10:19.623Z,27.62
2019-03-21T13:11:19.630Z,27.74
2019-03-21T13:12:19.608Z,27.82
2019-03-21T13:13:19.591Z,27.96
2019-03-21T13:14:19.580Z,27.98
2019-03-21T13:15:29.454Z,27.86
2019-03-21T13:16:20.573Z,27.59
2019-03-21T13:17:19.552Z,27.29
2019-03-21T13:18:19.540Z,27.36
2019-03-21T13:19:19.530Z,27.32
2019-03-21T13:20:19.521Z,27.31
2019-03-21T13:21:19.510Z,27.17
2019-03-21T13:22:19.508Z,27.06
2019-03-21T13:23:19.488Z,26.80
2019-03-21T13:24:19.732Z,26.74
2019-03-21T13:25:19.467Z,26.49
2019-03-21T13:26:19.455Z,26.44
2019-03-21T13:27:19.454Z,26.27
2019-03-21T13:28:19.438Z,26.20
2019-03-21T13:29:19.431Z,26.06
2019-03-21T13:30:19.413Z,26.05
2019-03-21T13:31:19.406Z,25.93
2019-03-21T13:32:19.400Z,25.99
2019-03-21T13:33:19.382Z,26.02
2019-03-21T13:34:19.373Z,26.06
2019-03-21T13:35:19.365Z,26.18
2019-03-21T13:36:19.350Z,26.40
2019-03-21T13:37:19.347Z,26.40
2019-03-21T13:38:19.327Z,26.50
2019-03-21T13:39:19.319Z,26.55
2019-03-21T13:40:19.308Z,26.69
2019-03-21T13:41:19.306Z,26.72
2019-03-21T13:42:19.294Z,26.67
2019-03-21T13:43:19.274Z,26.76
2019-03-21T13:44:19.264Z,26.96
2019-03-21T13:45:19.255Z,26.95
2019-03-21T13:46:19.248Z,27.11
2019-03-21T13:47:19.240Z,27.16
2019-03-21T13:48:19.219Z,27.20
2019-03-21T13:49:19.211Z,27.16
2019-03-21T13:50:19.200Z,27.02
2019-03-21T13:51:19.188Z,26.94
2019-03-21T13:52:19.186Z,26.91
2019-03-21T13:53:19.337Z,26.81
2019-03-21T13:54:19.159Z,26.83
2019-03-21T13:55:19.144Z,26.81
2019-03-21T13:56:19.140Z,26.68
2019-03-21T13:57:19.145Z,26.54
2019-03-21T13:58:19.113Z,26.35
2019-03-21T13:59:19.103Z,26.11
2019-03-21T14:00:19.093Z,26.09
2019-03-21T14:01:19.080Z,26.21
2019-03-21T14:02:19.081Z,26.39
2019-03-21T14:03:25.066Z,26.57
2019-03-21T14:04:20.048Z,26.76
2019-03-21T14:05:19.037Z,27.05
2019-03-21T14:06:19.025Z,27.33
2019-03-21T14:07:19.018Z,27.29
2019-03-21T14:08:19.011Z,27.46
2019-03-21T14:09:20.418Z,27.54
2019-03-21T14:10:18.982Z,27.59
2019-03-21T14:11:19.404Z,27.69
2019-03-21T14:12:18.960Z,27.70
2019-03-21T14:13:18.958Z,27.61
2019-03-21T14:14:18.939Z,27.58
2019-03-21T14:15:18.929Z,27.51
2019-03-21T14:16:18.916Z,27.47
2019-03-21T14:17:22.277Z,27.35
2019-03-21T14:18:18.904Z,27.32
2019-03-21T14:19:18.884Z,27.16
2019-03-21T14:20:18.874Z,27.17
2019-03-21T14:21:18.870Z,26.95
2019-03-21T14:22:21.289Z,26.65
2019-03-21T14:23:18.848Z,26.54
2019-03-21T14:24:18.832Z,26.29
2019-03-21T14:25:18.819Z,26.12
2019-03-21T14:26:18.808Z,25.82
2019-03-21T14:27:18.796Z,25.56
2019-03-21T14:28:18.804Z,25.47
2019-03-21T14:29:18.778Z,25.27
2019-03-21T14:30:18.770Z,25.27
2019-03-21T14:31:18.753Z,25.25
2019-03-21T14:32:18.746Z,25.22
2019-03-21T14:33:18.742Z,25.13
2019-03-21T14:34:18.725Z,24.88
2019-03-21T14:35:18.716Z,24.57
2019-03-21T14:36:18.699Z,24.22
2019-03-21T14:37:18.693Z,24.02
2019-03-21T14:38:26.057Z,23.89
2019-03-21T14:39:19.668Z,23.97
2019-03-21T14:40:18.665Z,24.05
2019-03-21T14:41:18.646Z,24.16
2019-03-21T14:42:18.635Z,24.22
2019-03-21T14:43:18.696Z,24.39
2019-03-21T14:44:18.624Z,24.44
2019-03-21T14:45:18.602Z,24.54
2019-03-21T14:46:18.591Z,24.61
2019-03-21T14:47:18.581Z,24.68
2019-03-21T14:48:18.569Z,24.77
2019-03-21T14:49:18.569Z,24.90
2019-03-21T14:50:18.549Z,25.00
2019-03-21T14:51:18.541Z,25.09
2019-03-21T14:52:18.526Z,24.92
2019-03-21T14:53:28.270Z,25.01
2019-03-21T14:54:19.521Z,24.95
2019-03-21T14:55:18.499Z,24.91
2019-03-21T14:56:18.487Z,24.92
2019-03-21T14:57:18.474Z,25.01
2019-03-21T14:58:18.461Z,24.95
2019-03-21T14:59:18.468Z,24.87
2019-03-21T15:00:18.439Z,24.68
2019-03-21T15:01:18.431Z,24.59
2019-03-21T15:02:18.418Z,24.59
2019-03-21T15:03:18.408Z,24.39
2019-03-21T15:04:18.407Z,24.35
2019-03-21T15:05:18.387Z,24.27
2019-03-21T15:06:18.375Z,24.14
2019-03-21T15:07:18.811Z,24.10
2019-03-21T15:08:18.353Z,23.97
2019-03-21T15:09:18.352Z,23.90
2019-03-21T15:10:18.336Z,23.82
2019-03-21T15:11:18.325Z,23.70
2019-03-21T15:12:18.311Z,23.60
2019-03-21T15:13:18.327Z,23.40
2019-03-21T15:14:18.322Z,23.34
2019-03-21T15:15:18.290Z,23.29
2019-03-21T15:16:18.265Z,23.14
2019-03-21T15:17:18.254Z,23.09
2019-03-21T15:18:18.245Z,23.08
2019-03-21T15:19:18.267Z,22.78
2019-03-21T15:20:18.223Z,22.56
2019-03-21T15:21:18.213Z,22.43
2019-03-21T15:22:18.199Z,22.14
2019-03-21T15:23:18.189Z,21.85
2019-03-21T15:24:18.186Z,21.67
2019-03-21T15:25:18.167Z,21.48
2019-03-21T15:26:18.157Z,21.16
2019-03-21T15:27:18.146Z,21.04
2019-03-21T15:28:18.132Z,20.87
2019-03-21T15:29:18.133Z,20.79
2019-03-21T15:30:18.333Z,20.62
2019-03-21T15:31:18.101Z,20.41
2019-03-21T15:32:18.105Z,20.21
2019-03-21T15:33:18.081Z,20.20
2019-03-21T15:34:18.085Z,20.02
2019-03-21T15:35:18.062Z,20.00
2019-03-21T15:36:18.045Z,19.95
2019-03-21T15:37:19.741Z,19.88
2019-03-21T15:38:18.023Z,19.86
2019-03-21T15:39:18.012Z,19.69
2019-03-21T15:40:18.010Z,19.72
2019-03-21T15:41:17.991Z,19.65
2019-03-21T15:42:17.978Z,19.54
2019-03-21T15:43:17.968Z,19.53
2019-03-21T15:44:17.955Z,19.47
2019-03-21T15:45:22.078Z,19.51
2019-03-21T15:46:18.935Z,19.43
2019-03-21T15:47:17.924Z,19.32
2019-03-21T15:48:20.760Z,19.17
2019-03-21T15:49:18.075Z,19.20
2019-03-21T15:50:17.906Z,19.08
2019-03-21T15:51:17.899Z,18.94
2019-03-21T15:52:17.999Z,18.99
2019-03-21T15:53:17.856Z,18.87
2019-03-21T15:54:17.846Z,18.87
2019-03-21T15:55:17.843Z,18.83
2019-03-21T15:56:17.828Z,18.77
2019-03-21T15:57:17.813Z,18.70
2019-03-21T15:58:17.803Z,18.73
2019-03-21T15:59:17.794Z,18.61
2019-03-21T16:00:17.807Z,18.49
2019-03-21T16:01:17.769Z,18.39
2019-03-21T16:02:17.777Z,18.46
2019-03-21T16:03:17.749Z,18.40
2019-03-21T16:04:17.737Z,18.42
2019-03-21T16:05:17.735Z,18.19
2019-03-21T16:06:17.718Z,18.25
2019-03-21T16:07:17.704Z,18.28
2019-03-21T16:08:17.691Z,18.17
2019-03-21T16:09:17.682Z,18.18
2019-03-21T16:10:17.679Z,18.07
2019-03-21T16:11:17.660Z,18.06
2019-03-21T16:12:17.647Z,18.06
2019-03-21T16:13:17.635Z,18.06
2019-03-21T16:14:17.624Z,18.10
2019-03-21T16:15:17.625Z,17.88
2019-03-21T16:16:17.601Z,17.88
2019-03-21T16:17:17.594Z,17.95
2019-03-21T16:18:17.579Z,17.89
2019-03-21T16:19:17.573Z,17.88
2019-03-21T16:20:17.575Z,17.84
2019-03-21T16:21:17.548Z,17.84
2019-03-21T16:22:17.533Z,17.85
2019-03-21T16:23:17.532Z,17.74
2019-03-21T16:24:17.514Z,17.76
2019-03-21T16:25:17.514Z,17.71
2019-03-21T16:26:17.491Z,17.64
2019-03-21T16:27:17.478Z,17.57
2019-03-21T16:28:20.079Z,17.69
2019-03-21T16:29:17.464Z,17.62
2019-03-21T16:30:17.451Z,17.63
2019-03-21T16:31:17.435Z,17.54
2019-03-21T16:32:17.421Z,17.50
2019-03-21T16:33:17.473Z,17.46
2019-03-21T16:34:17.397Z,17.51
2019-03-21T16:35:17.401Z,17.46
2019-03-21T16:36:17.378Z,17.40
2019-03-21T16:37:17.367Z,17.38
2019-03-21T16:38:17.430Z,17.36
2019-03-21T16:39:17.342Z,17.44
2019-03-21T16:40:17.329Z,17.26
2019-03-21T16:41:17.326Z,17.41
2019-03-21T16:42:17.366Z,17.36
2019-03-21T16:43:17.298Z,17.26
2019-03-21T16:44:17.285Z,17.28
2019-03-21T16:45:17.276Z,17.13
2019-03-21T16:46:17.291Z,17.17
2019-03-21T16:47:17.251Z,17.15
2019-03-21T16:48:17.258Z,17.10
2019-03-21T16:49:17.231Z,17.15
2019-03-21T16:50:17.217Z,17.17
2019-03-21T16:51:17.217Z,17.06
2019-03-21T16:52:17.197Z,17.03
2019-03-21T16:53:17.181Z,17.07
2019-03-21T16:54:17.665Z,16.90
2019-03-21T16:55:17.159Z,16.88
2019-03-21T16:56:17.155Z,16.95
2019-03-21T16:57:17.135Z,16.95
2019-03-21T16:58:17.124Z,16.95
2019-03-21T16:59:17.111Z,16.95
2019-03-21T17:00:17.948Z,16.83
2019-03-21T17:01:17.099Z,16.81
2019-03-21T17:02:17.080Z,16.85
2019-03-21T17:03:17.067Z,16.71
2019-03-21T17:04:17.061Z,16.88
2019-03-21T17:05:17.046Z,16.78
2019-03-21T17:06:17.044Z,16.81
2019-03-21T17:07:17.024Z,16.70
2019-03-21T17:08:17.029Z,16.65
2019-03-21T17:09:16.999Z,16.65
2019-03-21T17:10:17.024Z,16.62
2019-03-21T17:11:17.010Z,16.52
2019-03-21T17:12:16.982Z,16.53
2019-03-21T17:13:16.955Z,16.48
2019-03-21T17:14:16.947Z,16.52
2019-03-21T17:15:16.938Z,16.44
2019-03-21T17:16:16.931Z,16.37
2019-03-21T17:17:16.911Z,16.31
2019-03-21T17:18:16.906Z,16.37
2019-03-21T17:19:16.899Z,16.30
2019-03-21T17:20:16.885Z,16.34
2019-03-21T17:21:16.881Z,16.31
2019-03-21T17:22:16.856Z,16.25
2019-03-21T17:23:16.846Z,16.07
2019-03-21T17:24:28.453Z,16.15
2019-03-21T17:25:17.821Z,16.18
2019-03-21T17:26:16.823Z,16.07
2019-03-21T17:27:16.806Z,16.07
2019-03-21T17:28:16.795Z,16.04
2019-03-21T17:29:16.779Z,16.01
2019-03-21T17:30:16.769Z,16.03
2019-03-21T17:31:16.789Z,15.97
2019-03-21T17:32:17.460Z,16.01
2019-03-21T17:33:16.741Z,15.92
2019-03-21T17:34:16.724Z,15.96
2019-03-21T17:35:16.713Z,15.93
2019-03-21T17:36:16.705Z,15.82
2019-03-21T17:37:16.703Z,15.85
2019-03-21T17:38:16.684Z,15.67
2019-03-21T17:39:16.706Z,15.75
2019-03-21T17:40:16.663Z,15.85
2019-03-21T17:41:16.649Z,15.66
2019-03-21T17:42:16.645Z,15.70
2019-03-21T17:43:16.626Z,15.57
2019-03-21T17:44:16.617Z,15.56
2019-03-21T17:45:16.603Z,15.45
2019-03-21T17:46:16.593Z,15.49
2019-03-21T17:47:16.593Z,15.52
2019-03-21T17:48:16.567Z,15.42
2019-03-21T17:49:16.563Z,15.33
2019-03-21T17:50:16.549Z,15.43
2019-03-21T17:51:16.536Z,15.28
2019-03-21T17:52:16.539Z,15.43
2019-03-21T17:53:16.513Z,15.27
2019-03-21T17:54:16.501Z,15.33
2019-03-21T17:55:16.495Z,15.28
2019-03-21T17:56:16.480Z,15.24
2019-03-21T17:57:16.501Z,15.21
2019-03-21T17:58:16.456Z,15.20
2019-03-21T17:59:16.446Z,15.13
2019-03-21T18:00:16.436Z,15.17
2019-03-21T18:01:16.426Z,15.03
2019-03-21T18:02:16.432Z,15.03
2019-03-21T18:03:16.407Z,14.93
2019-03-21T18:04:16.394Z,15.03
2019-03-21T18:05:16.381Z,14.90
2019-03-21T18:06:16.370Z,14.90
2019-03-21T18:07:16.356Z,14.87
2019-03-21T18:08:16.355Z,14.87
2019-03-21T18:09:16.333Z,14.71
2019-03-21T18:10:16.323Z,14.72
2019-03-21T18:11:16.312Z,14.72
2019-03-21T18:12:16.301Z,14.72
2019-03-21T18:13:16.299Z,14.64
2019-03-21T18:14:16.279Z,14.64
2019-03-21T18:15:16.267Z,14.61
2019-03-21T18:16:18.576Z,14.52
2019-03-21T18:17:16.245Z,14.39
2019-03-21T18:18:16.241Z,14.47
2019-03-21T18:19:16.340Z,14.43
2019-03-21T18:20:16.216Z,14.52
2019-03-21T18:21:16.201Z,14.37
2019-03-21T18:22:16.193Z,14.32
2019-03-21T18:23:16.230Z,14.32
2019-03-21T18:24:16.177Z,14.27
2019-03-21T18:25:16.159Z,14.27
2019-03-21T18:26:16.146Z,14.17
2019-03-21T18:27:16.138Z,14.14
2019-03-21T18:28:16.132Z,14.21
2019-03-21T18:29:16.116Z,14.17
2019-03-21T18:30:16.100Z,14.27
2019-03-21T18:31:16.108Z,14.16
2019-03-21T18:32:16.154Z,14.17
2019-03-21T18:33:16.082Z,14.12
2019-03-21T18:34:16.065Z,14.01
2019-03-21T18:35:16.072Z,14.02
2019-03-21T18:36:16.039Z,13.99
2019-03-21T18:37:16.031Z,13.98
2019-03-21T18:38:16.025Z,13.99
2019-03-21T18:39:16.003Z,13.92
2019-03-21T18:40:15.990Z,13.84
2019-03-21T18:41:16.002Z,13.88
2019-03-21T18:42:15.967Z,13.91
2019-03-21T18:43:15.975Z,13.80
2019-03-21T18:44:15.942Z,13.74
2019-03-21T18:45:15.931Z,13.91
2019-03-21T18:46:15.925Z,13.84
2019-03-21T18:47:15.984Z,13.76
2019-03-21T18:48:15.933Z,13.71
2019-03-21T18:49:15.888Z,13.73
2019-03-21T18:50:15.887Z,13.73
2019-03-21T18:51:15.868Z,13.70
2019-03-21T18:52:15.858Z,13.69
2019-03-21T18:53:15.855Z,13.59
2019-03-21T18:54:15.834Z,13.65
2019-03-21T18:55:15.871Z,13.55
2019-03-21T18:56:15.813Z,13.69
2019-03-21T18:57:15.798Z,13.54
2019-03-21T18:58:15.798Z,13.58
2019-03-21T18:59:15.786Z,13.52
2019-03-21T19:00:15.770Z,13.49
2019-03-21T19:01:15.754Z,13.56
2019-03-21T19:02:15.741Z,13.51
2019-03-21T19:03:15.748Z,13.51
2019-03-21T19:04:15.721Z,13.54
2019-03-21T19:05:15.719Z,13.36
2019-03-21T19:06:15.721Z,13.43
2019-03-21T19:07:15.692Z,13.32
2019-03-21T19:08:15.680Z,13.37
2019-03-21T19:09:15.692Z,13.30
2019-03-21T19:10:15.666Z,13.29
2019-03-21T19:11:15.656Z,13.36
2019-03-21T19:12:15.633Z,13.25
2019-03-21T19:13:15.620Z,13.24
2019-03-21T19:14:15.625Z,13.18
2019-03-21T19:15:15.603Z,13.20
2019-03-21T19:16:15.588Z,13.22
2019-03-21T19:17:15.576Z,13.07
2019-03-21T19:18:15.576Z,13.24
2019-03-21T19:19:15.566Z,13.20
2019-03-21T19:20:15.542Z,13.18
2019-03-21T19:21:15.544Z,13.18
2019-03-21T19:22:15.524Z,13.15
2019-03-21T19:23:15.532Z,13.07
2019-03-21T19:24:15.513Z,13.11
2019-03-21T19:25:19.131Z,13.09
2019-03-21T19:26:15.477Z,13.11
2019-03-21T19:27:15.477Z,13.11
2019-03-21T19:28:15.453Z,13.11
2019-03-21T19:29:15.456Z,13.07
2019-03-21T19:30:15.436Z,13.04
2019-03-21T19:31:15.421Z,13.02
2019-03-21T19:32:15.411Z,13.06
2019-03-21T19:33:15.406Z,13.12
2019-03-21T19:34:15.398Z,13.02
2019-03-21T19:35:15.376Z,13.02
2019-03-21T19:36:15.370Z,13.02
2019-03-21T19:37:15.350Z,12.88
2019-03-21T19:38:15.416Z,12.88
2019-03-21T19:39:15.338Z,12.96
2019-03-21T19:40:15.319Z,12.88
2019-03-21T19:41:15.308Z,12.84
2019-03-21T19:42:15.300Z,12.92
2019-03-21T19:43:15.317Z,12.85
2019-03-21T19:44:15.282Z,12.88
2019-03-21T19:45:15.264Z,12.87
2019-03-21T19:46:15.251Z,12.82
2019-03-21T19:47:23.835Z,12.82
2019-03-21T19:48:16.229Z,12.79
2019-03-21T19:49:15.297Z,12.82
2019-03-21T19:50:15.225Z,12.85
2019-03-21T19:51:15.207Z,12.85
2019-03-21T19:52:15.195Z,12.70
2019-03-21T19:53:15.173Z,12.67
2019-03-21T19:54:15.169Z,12.74
2019-03-21T19:55:15.167Z,12.81
2019-03-21T19:56:15.161Z,12.87
2019-03-21T19:57:15.170Z,12.81
2019-03-21T19:58:15.137Z,12.81
2019-03-21T19:59:15.120Z,12.66
2019-03-21T20:00:15.110Z,12.71
2019-03-21T20:01:15.089Z,12.78
2019-03-21T20:02:15.088Z,12.71
2019-03-21T20:03:15.073Z,12.71
2019-03-21T20:04:15.104Z,12.75
2019-03-21T20:05:15.082Z,12.63
2019-03-21T20:06:15.028Z,12.69
2019-03-21T20:07:15.018Z,12.62
2019-03-21T20:08:15.008Z,12.74
2019-03-21T20:09:14.996Z,12.51
2019-03-21T20:10:14.994Z,12.59
2019-03-21T20:11:15.114Z,12.49
2019-03-21T20:12:15.027Z,12.49
2019-03-21T20:13:15.010Z,12.49
2019-03-21T20:14:14.996Z,12.51
2019-03-21T20:15:14.946Z,12.52
2019-03-21T20:16:14.921Z,12.51
2019-03-21T20:17:14.919Z,12.48
2019-03-21T20:18:14.895Z,12.48
2019-03-21T20:19:14.966Z,12.49
2019-03-21T20:20:15.016Z,12.44
2019-03-21T20:21:14.928Z,12.38
2019-03-21T20:22:14.928Z,12.44
2019-03-21T20:23:14.841Z,12.42
2019-03-21T20:24:14.829Z,12.29
2019-03-21T20:25:14.839Z,12.31
2019-03-21T20:26:14.807Z,12.24
2019-03-21T20:27:14.816Z,12.27
2019-03-21T20:28:14.785Z,12.26
2019-03-21T20:29:14.891Z,12.23
2019-03-21T20:30:14.784Z,12.29
2019-03-21T20:31:14.749Z,12.13
2019-03-21T20:32:20.501Z,12.15
2019-03-21T20:33:15.731Z,12.13
2019-03-21T20:34:14.737Z,12.15
2019-03-21T20:35:14.712Z,12.12
2019-03-21T20:36:14.712Z,12.12
2019-03-21T20:37:14.690Z,12.11
2019-03-21T20:38:14.682Z,12.04
2019-03-21T20:39:14.663Z,11.93
2019-03-21T20:40:14.654Z,11.90
2019-03-21T20:41:14.650Z,11.86
2019-03-21T20:42:14.629Z,11.86
2019-03-21T20:43:14.636Z,11.87
2019-03-21T20:44:15.616Z,11.77
2019-03-21T20:45:14.596Z,11.74
2019-03-21T20:46:14.591Z,11.77
2019-03-21T20:47:14.572Z,11.82
2019-03-21T20:48:14.562Z,11.67
2019-03-21T20:49:14.548Z,11.61
2019-03-21T20:50:14.545Z,11.65
2019-03-21T20:51:14.545Z,11.56
2019-03-21T20:52:14.518Z,11.57
2019-03-21T20:53:14.513Z,11.47
2019-03-21T20:54:14.496Z,11.61
2019-03-21T20:55:14.487Z,11.46
2019-03-21T20:56:14.487Z,11.54
2019-03-21T20:57:14.482Z,11.46
2019-03-21T20:58:14.450Z,11.41
2019-03-21T20:59:14.444Z,11.46
2019-03-21T21:00:14.426Z,11.36
2019-03-21T21:01:14.425Z,11.35
2019-03-21T21:02:14.414Z,11.29
2019-03-21T21:03:14.394Z,11.29
2019-03-21T21:04:14.386Z,11.31
2019-03-21T21:05:14.375Z,11.29
2019-03-21T21:06:14.391Z,11.35
2019-03-21T21:07:14.368Z,11.24
2019-03-21T21:08:14.336Z,11.21
2019-03-21T21:09:14.337Z,11.21
2019-03-21T21:10:14.327Z,11.19
2019-03-21T21:11:14.331Z,11.13
2019-03-21T21:12:14.357Z,11.17
2019-03-21T21:13:14.282Z,11.09
2019-03-21T21:14:14.276Z,11.06
2019-03-21T21:15:14.262Z,11.09
2019-03-21T21:16:14.250Z,11.17
2019-03-21T21:17:14.247Z,11.20
2019-03-21T21:18:14.226Z,11.07
2019-03-21T21:19:14.215Z,11.02
2019-03-21T21:20:14.204Z,10.98
2019-03-21T21:21:14.193Z,11.01
2019-03-21T21:22:14.190Z,10.91
2019-03-21T21:23:14.169Z,10.81
2019-03-21T21:24:14.173Z,10.88
2019-03-21T21:25:14.147Z,10.88
2019-03-21T21:26:14.134Z,10.81
2019-03-21T21:27:14.135Z,10.83
2019-03-21T21:28:14.113Z,10.78
2019-03-21T21:29:14.104Z,10.74
2019-03-21T21:30:14.095Z,10.77
2019-03-21T21:31:14.094Z,10.78
2019-03-21T21:32:14.166Z,10.76
2019-03-21T21:33:14.063Z,10.70
2019-03-21T21:34:14.051Z,10.71
2019-03-21T21:35:14.046Z,10.74
2019-03-21T21:36:21.826Z,10.65